Aeroporto :
LOGIN :

Iscrizione | Disclaimer

   EN    FR    IT 

 










Sommario :    VFR   VFR Marginale   IFR   IFR Intensivo   IFR Molto Intensivo
Visibilità : 
Base nubi : 
>= 8 km
>= 3000ft
5 / 8 km
1000 / 3000 ft
1500m / 5 km
500 / 1000 ft
800 / 1500m
200 / 500 ft
< 800m
< 200 ft
Simboli :   Temporali  Nebbia  Neve Forte  Precipitazioni Forti  Vento > 20 kt
SIGMETs :   Varie  Temporali  Ghiacco  Turbolenza  Onda orograficha  Ceneri Vulcaniche







- Altitudine del aeroporto : 15 ft
- Codice IATA : BHD
- Carte del aeroporto


EGAC - George Best Belfast City

ULTIMO METAR :
  • 161150Z AUTO 18009KT 140V210 9999 FEW031/// 15/09 Q1008

METARs OBSOLETI :
  • 161120Z AUTO 16012KT 130V190 9999 SCT038/// 15/08 Q1008
  • 161050Z AUTO 18009KT 150V210 9999 SCT037/// BKN044/// 14/08 Q1008
  • 161020Z AUTO 18008KT 110V210 9999 NCD 15/07 Q1008
  • 160950Z AUTO 14005KT 9999 -RA SCT032/// BKN043/// 14/09 Q1009
  • 160920Z AUTO 21006KT 180V250 9999 FEW037/// 13/08 Q1009

TAF TAF EGAC
Valido dal 16 a 12 ore il 16 a 21 ore UTC


161057Z 1612/1621 19011KT 9999 SCT035
TEMPO 1612/1621 6000 SHRA
PROB30
TEMPO 1616/1621 19015G25KT 3000 +SHRA +TSRA BKN009 BKN020CB
ATIS : +44 02890 935 124
Nessun NOTAM noto per questo aeroporto.



MetMap, La meteo Aeronautica in un colpo d'occhio ! - Copyright ORBIFLY Dicembre 2007 - Disclaimer

ORBIFLY MET'MAP TEAM :

Programmazione e sviluppo : Alexandra Zaïnal
Concezione e sviluppo : Baudouin d'Aumeries
Co-Programmazione e sviluppo : Marc-Olivier Méhu
Supporto tecnico e logistico : Manuel Goepfert
Aiuto per la traduzione : Arnaldo La Scala

Contatto : metmap@orbifly.com




FONTI E CREDITI :

   NOAA